sensor_id;sensor_type;location;lat;lon;timestamp;temperature;humidity
23149;DHT22;11743;51.228;22.498;2024-01-10T00:00:11;-12.00;3.60
23149;DHT22;11743;51.228;22.498;2024-01-10T00:00:32;-12.00;1.00
23149;DHT22;11743;51.228;22.498;2024-01-10T00:00:54;-12.00;1.00
23149;DHT22;11743;51.228;22.498;2024-01-10T00:01:17;-12.00;1.00
23149;DHT22;11743;51.228;22.498;2024-01-10T00:01:39;-12.00;1.00
23149;DHT22;11743;51.228;22.498;2024-01-10T00:02:01;-12.00;99.90
23149;DHT22;11743;51.228;22.498;2024-01-10T00:02:24;-12.00;1.00
23149;DHT22;11743;51.228;22.498;2024-01-10T00:02:46;-12.00;1.00
23149;DHT22;11743;51.228;22.498;2024-01-10T00:03:08;-12.00;99.90
23149;DHT22;11743;51.228;22.498;2024-01-10T00:03:30;-12.10;72.10
23149;DHT22;11743;51.228;22.498;2024-01-10T00:03:55;-12.10;1.00
23149;DHT22;11743;51.228;22.498;2024-01-10T00:04:17;-12.10;99.90
23149;DHT22;11743;51.228;22.498;2024-01-10T00:04:39;-12.10;1.00
23149;DHT22;11743;51.228;22.498;2024-01-10T00:05:01;-12.10;99.90
23149;DHT22;11743;51.228;22.498;2024-01-10T00:05:23;-12.10;1.00
23149;DHT22;11743;51.228;22.498;2024-01-10T00:05:45;-12.10;1.00
23149;DHT22;11743;51.228;22.498;2024-01-10T00:06:06;-12.10;1.00
23149;DHT22;11743;51.228;22.498;2024-01-10T00:06:28;-12.10;1.00
23149;DHT22;11743;51.228;22.498;2024-01-10T00:06:50;-12.10;1.00
23149;DHT22;11743;51.228;22.498;2024-01-10T00:07:12;-12.10;1.00
23149;DHT22;11743;51.228;22.498;2024-01-10T00:07:34;-12.10;1.00
23149;DHT22;11743;51.228;22.498;2024-01-10T00:07:58;-12.10;1.00
23149;DHT22;11743;51.228;22.498;2024-01-10T00:08:19;-12.00;1.00
23149;DHT22;11743;51.228;22.498;2024-01-10T00:08:44;-12.00;1.00
23149;DHT22;11743;51.228;22.498;2024-01-10T00:09:06;-12.00;1.00
23149;DHT22;11743;51.228;22.498;2024-01-10T00:09:28;-12.00;99.90
23149;DHT22;11743;51.228;22.498;2024-01-10T00:09:50;-12.00;99.90
23149;DHT22;11743;51.228;22.498;2024-01-10T00:10:12;-12.00;99.90
23149;DHT22;11743;51.228;22.498;2024-01-10T00:10:34;-12.00;99.90
23149;DHT22;11743;51.228;22.498;2024-01-10T00:10:56;-12.00;1.00
23149;DHT22;11743;51.228;22.498;2024-01-10T00:11:18;-12.00;99.90
23149;DHT22;11743;51.228;22.498;2024-01-10T00:11:39;-12.00;1.00
23149;DHT22;11743;51.228;22.498;2024-01-10T00:12:01;-12.00;1.00
23149;DHT22;11743;51.228;22.498;2024-01-10T00:12:23;-12.00;1.00
23149;DHT22;11743;51.228;22.498;2024-01-10T00:12:45;-12.00;1.00
23149;DHT22;11743;51.228;22.498;2024-01-10T00:13:07;-11.90;1.00
23149;DHT22;11743;51.228;22.498;2024-01-10T00:13:31;-11.90;1.00
23149;DHT22;11743;51.228;22.498;2024-01-10T00:13:53;-11.90;1.00
23149;DHT22;11743;51.228;22.498;2024-01-10T00:14:21;-11.90;1.00
23149;DHT22;11743;51.228;22.498;2024-01-10T00:14:43;-11.90;1.00
23149;DHT22;11743;51.228;22.498;2024-01-10T00:15:05;-11.90;1.00
23149;DHT22;11743;51.228;22.498;2024-01-10T00:15:28;-11.90;1.00
23149;DHT22;11743;51.228;22.498;2024-01-10T00:15:52;-11.90;1.00
23149;DHT22;11743;51.228;22.498;2024-01-10T00:16:14;-11.90;1.00
23149;DHT22;11743;51.228;22.498;2024-01-10T00:16:36;-11.90;99.90
23149;DHT22;11743;51.228;22.498;2024-01-10T00:16:58;-11.90;99.90
23149;DHT22;11743;51.228;22.498;2024-01-10T00:17:20;-11.90;99.90
23149;DHT22;11743;51.228;22.498;2024-01-10T00:17:42;-11.90;99.90
23149;DHT22;11743;51.228;22.498;2024-01-10T00:18:04;-11.90;99.90
23149;DHT22;11743;51.228;22.498;2024-01-10T00:18:26;-11.60;1.00
23149;DHT22;11743;51.228;22.498;2024-01-10T00:18:48;-11.90;99.90
23149;DHT22;11743;51.228;22.498;2024-01-10T00:19:10;-11.90;99.90
23149;DHT22;11743;51.228;22.498;2024-01-10T00:19:32;-11.90;99.90
23149;DHT22;11743;51.228;22.498;2024-01-10T00:19:54;-11.90;99.90
23149;DHT22;11743;51.228;22.498;2024-01-10T00:20:16;-11.90;99.90
23149;DHT22;11743;51.228;22.498;2024-01-10T00:20:38;-11.80;1.00
23149;DHT22;11743;51.228;22.498;2024-01-10T00:20:59;-11.90;99.90
23149;DHT22;11743;51.228;22.498;2024-01-10T00:21:21;-11.80;99.90
23149;DHT22;11743;51.228;22.498;2024-01-10T00:21:43;-11.90;99.90
23149;DHT22;11743;51.228;22.498;2024-01-10T00:22:05;-11.90;99.90
23149;DHT22;11743;51.228;22.498;2024-01-10T00:22:27;-11.90;99.90
23149;DHT22;11743;51.228;22.498;2024-01-10T00:22:48;-11.90;99.90
23149;DHT22;11743;51.228;22.498;2024-01-10T00:23:10;-11.90;99.90
23149;DHT22;11743;51.228;22.498;2024-01-10T00:23:32;-11.90;99.90
23149;DHT22;11743;51.228;22.498;2024-01-10T00:23:54;-11.90;1.00
23149;DHT22;11743;51.228;22.498;2024-01-10T00:24:16;-11.90;1.00
23149;DHT22;11743;51.228;22.498;2024-01-10T00:24:38;-11.90;1.00
23149;DHT22;11743;51.228;22.498;2024-01-10T00:25:00;-11.90;1.00
23149;DHT22;11743;51.228;22.498;2024-01-10T00:25:21;-11.90;1.00
23149;DHT22;11743;51.228;22.498;2024-01-10T00:25:43;-11.90;1.00
23149;DHT22;11743;51.228;22.498;2024-01-10T00:26:05;-11.90;1.00
23149;DHT22;11743;51.228;22.498;2024-01-10T00:26:27;-11.90;1.00
23149;DHT22;11743;51.228;22.498;2024-01-10T00:26:49;-11.90;1.00
23149;DHT22;11743;51.228;22.498;2024-01-10T00:27:11;-11.90;1.00
23149;DHT22;11743;51.228;22.498;2024-01-10T00:27:32;-11.90;1.00
23149;DHT22;11743;51.228;22.498;2024-01-10T00:27:55;-11.90;1.00
23149;DHT22;11743;51.228;22.498;2024-01-10T00:28:17;-11.90;1.00
23149;DHT22;11743;51.228;22.498;2024-01-10T00:28:39;-11.90;1.00
23149;DHT22;11743;51.228;22.498;2024-01-10T00:29:01;-11.80;1.00
23149;DHT22;11743;51.228;22.498;2024-01-10T00:29:25;-11.90;99.90
23149;DHT22;11743;51.228;22.498;2024-01-10T00:29:47;-11.90;99.90
23149;DHT22;11743;51.228;22.498;2024-01-10T00:30:09;-11.90;99.90
23149;DHT22;11743;51.228;22.498;2024-01-10T00:30:31;-11.90;99.90
23149;DHT22;11743;51.228;22.498;2024-01-10T00:30:53;-11.90;99.90
23149;DHT22;11743;51.228;22.498;2024-01-10T00:31:15;-11.90;99.90
23149;DHT22;11743;51.228;22.498;2024-01-10T00:31:37;-11.90;1.00
23149;DHT22;11743;51.228;22.498;2024-01-10T00:31:59;-11.90;99.90
23149;DHT22;11743;51.228;22.498;2024-01-10T00:32:21;-11.90;99.90
23149;DHT22;11743;51.228;22.498;2024-01-10T00:32:43;-11.90;99.90
23149;DHT22;11743;51.228;22.498;2024-01-10T00:33:05;-11.90;99.90
23149;DHT22;11743;51.228;22.498;2024-01-10T00:33:27;-11.90;92.10
23149;DHT22;11743;51.228;22.498;2024-01-10T00:33:49;-11.90;1.00
23149;DHT22;11743;51.228;22.498;2024-01-10T00:34:11;-11.80;1.00
23149;DHT22;11743;51.228;22.498;2024-01-10T00:34:33;-11.90;99.90
23149;DHT22;11743;51.228;22.498;2024-01-10T00:34:55;-11.90;1.00
23149;DHT22;11743;51.228;22.498;2024-01-10T00:35:17;-11.80;1.00
23149;DHT22;11743;51.228;22.498;2024-01-10T00:35:39;-11.80;1.00
23149;DHT22;11743;51.228;22.498;2024-01-10T00:36:01;-11.90;1.00
23149;DHT22;11743;51.228;22.498;2024-01-10T00:36:22;-11.90;99.90
23149;DHT22;11743;51.228;22.498;2024-01-10T00:36:44;-11.90;99.90
23149;DHT22;11743;51.228;22.498;2024-01-10T00:37:06;-11.90;99.90
23149;DHT22;11743;51.228;22.498;2024-01-10T00:37:28;-11.80;99.90
23149;DHT22;11743;51.228;22.498;2024-01-10T00:37:50;-10.00;1.00
23149;DHT22;11743;51.228;22.498;2024-01-10T00:38:13;-11.90;99.90
23149;DHT22;11743;51.228;22.498;2024-01-10T00:38:36;-11.80;99.90
23149;DHT22;11743;51.228;22.498;2024-01-10T00:38:58;-11.90;99.90
23149;DHT22;11743;51.228;22.498;2024-01-10T00:39:20;-11.90;99.90
23149;DHT22;11743;51.228;22.498;2024-01-10T00:39:41;-11.90;99.90
23149;DHT22;11743;51.228;22.498;2024-01-10T00:40:04;-11.90;99.90
23149;DHT22;11743;51.228;22.498;2024-01-10T00:40:26;-11.90;99.90
23149;DHT22;11743;51.228;22.498;2024-01-10T00:40:48;-11.90;99.90
23149;DHT22;11743;51.228;22.498;2024-01-10T00:41:09;-11.90;99.90
23149;DHT22;11743;51.228;22.498;2024-01-10T00:41:33;-11.90;99.90
23149;DHT22;11743;51.228;22.498;2024-01-10T00:41:55;-11.90;99.90
23149;DHT22;11743;51.228;22.498;2024-01-10T00:42:17;-11.90;99.90
23149;DHT22;11743;51.228;22.498;2024-01-10T00:42:39;-11.80;99.90
23149;DHT22;11743;51.228;22.498;2024-01-10T00:43:02;-11.90;99.90
23149;DHT22;11743;51.228;22.498;2024-01-10T00:43:24;-11.90;99.90
23149;DHT22;11743;51.228;22.498;2024-01-10T00:43:46;-11.90;99.90
23149;DHT22;11743;51.228;22.498;2024-01-10T00:44:07;-11.90;1.00
23149;DHT22;11743;51.228;22.498;2024-01-10T00:44:29;-11.80;1.00
23149;DHT22;11743;51.228;22.498;2024-01-10T00:44:51;-11.90;99.90
23149;DHT22;11743;51.228;22.498;2024-01-10T00:45:13;-11.90;99.90
23149;DHT22;11743;51.228;22.498;2024-01-10T00:45:35;-11.90;1.00
23149;DHT22;11743;51.228;22.498;2024-01-10T00:45:57;-11.90;99.90
23149;DHT22;11743;51.228;22.498;2024-01-10T00:46:19;-11.90;99.90
23149;DHT22;11743;51.228;22.498;2024-01-10T00:46:40;-11.90;99.90
23149;DHT22;11743;51.228;22.498;2024-01-10T00:47:02;-11.90;76.60
23149;DHT22;11743;51.228;22.498;2024-01-10T00:47:24;-11.90;1.00
23149;DHT22;11743;51.228;22.498;2024-01-10T00:47:48;-11.90;1.00
23149;DHT22;11743;51.228;22.498;2024-01-10T00:48:11;-11.90;99.90
23149;DHT22;11743;51.228;22.498;2024-01-10T00:48:32;-11.90;99.90
23149;DHT22;11743;51.228;22.498;2024-01-10T00:48:55;-11.90;99.90
23149;DHT22;11743;51.228;22.498;2024-01-10T00:49:17;-11.90;1.00
23149;DHT22;11743;51.228;22.498;2024-01-10T00:49:39;-11.90;1.00
23149;DHT22;11743;51.228;22.498;2024-01-10T00:50:01;-11.90;99.90
23149;DHT22;11743;51.228;22.498;2024-01-10T00:50:22;-11.90;99.90
23149;DHT22;11743;51.228;22.498;2024-01-10T00:50:44;-11.90;99.90
23149;DHT22;11743;51.228;22.498;2024-01-10T00:51:07;-11.90;99.90
23149;DHT22;11743;51.228;22.498;2024-01-10T00:51:30;-11.90;99.90
23149;DHT22;11743;51.228;22.498;2024-01-10T00:51:52;-11.90;99.90
23149;DHT22;11743;51.228;22.498;2024-01-10T00:52:15;-11.90;99.90
23149;DHT22;11743;51.228;22.498;2024-01-10T00:52:37;-11.90;99.90
23149;DHT22;11743;51.228;22.498;2024-01-10T00:52:59;-11.90;1.00
23149;DHT22;11743;51.228;22.498;2024-01-10T00:53:21;-11.80;99.90
23149;DHT22;11743;51.228;22.498;2024-01-10T00:53:43;-11.90;99.90
23149;DHT22;11743;51.228;22.498;2024-01-10T00:54:04;-11.90;99.90
23149;DHT22;11743;51.228;22.498;2024-01-10T00:54:26;-11.80;99.90
23149;DHT22;11743;51.228;22.498;2024-01-10T00:54:48;-11.80;99.90
23149;DHT22;11743;51.228;22.498;2024-01-10T00:55:10;-11.80;99.90
23149;DHT22;11743;51.228;22.498;2024-01-10T00:55:32;-11.80;1.00
23149;DHT22;11743;51.228;22.498;2024-01-10T00:55:54;-11.80;75.70
23149;DHT22;11743;51.228;22.498;2024-01-10T00:56:16;-11.80;1.00
23149;DHT22;11743;51.228;22.498;2024-01-10T00:56:38;-11.80;1.00
23149;DHT22;11743;51.228;22.498;2024-01-10T00:57:00;-11.90;1.00
23149;DHT22;11743;51.228;22.498;2024-01-10T00:57:22;-11.80;1.00
23149;DHT22;11743;51.228;22.498;2024-01-10T00:57:43;-11.80;99.90
23149;DHT22;11743;51.228;22.498;2024-01-10T00:58:05;-11.80;99.90
23149;DHT22;11743;51.228;22.498;2024-01-10T00:58:27;-11.70;1.00
23149;DHT22;11743;51.228;22.498;2024-01-10T00:58:49;-11.80;1.00
23149;DHT22;11743;51.228;22.498;2024-01-10T00:59:11;-11.80;1.00
23149;DHT22;11743;51.228;22.498;2024-01-10T00:59:33;-11.80;1.00
23149;DHT22;11743;51.228;22.498;2024-01-10T00:59:54;-11.80;1.00
23149;DHT22;11743;51.228;22.498;2024-01-10T01:00:16;-11.80;1.00
23149;DHT22;11743;51.228;22.498;2024-01-10T01:00:38;-11.80;1.00
23149;DHT22;11743;51.228;22.498;2024-01-10T01:01:00;-11.80;1.00
23149;DHT22;11743;51.228;22.498;2024-01-10T01:01:22;-11.80;1.00
23149;DHT22;11743;51.228;22.498;2024-01-10T01:01:44;-11.80;1.00
23149;DHT22;11743;51.228;22.498;2024-01-10T01:02:06;-11.80;1.00
23149;DHT22;11743;51.228;22.498;2024-01-10T01:02:28;-11.80;1.00
23149;DHT22;11743;51.228;22.498;2024-01-10T01:02:49;-11.80;1.00
23149;DHT22;11743;51.228;22.498;2024-01-10T01:03:11;-11.80;1.00
23149;DHT22;11743;51.228;22.498;2024-01-10T01:03:33;-11.80;99.90
23149;DHT22;11743;51.228;22.498;2024-01-10T01:03:55;-11.80;1.00
23149;DHT22;11743;51.228;22.498;2024-01-10T01:04:17;-11.80;1.00
23149;DHT22;11743;51.228;22.498;2024-01-10T01:04:39;-11.80;1.00
23149;DHT22;11743;51.228;22.498;2024-01-10T01:05:02;-11.80;1.00
23149;DHT22;11743;51.228;22.498;2024-01-10T01:05:24;-11.80;1.00
23149;DHT22;11743;51.228;22.498;2024-01-10T01:05:46;-11.80;1.00
23149;DHT22;11743;51.228;22.498;2024-01-10T01:06:08;-11.80;1.00
23149;DHT22;11743;51.228;22.498;2024-01-10T01:06:30;-10.10;1.00
23149;DHT22;11743;51.228;22.498;2024-01-10T01:06:52;-11.80;1.00
23149;DHT22;11743;51.228;22.498;2024-01-10T01:07:14;-11.80;1.00
23149;DHT22;11743;51.228;22.498;2024-01-10T01:07:36;-11.80;1.00
23149;DHT22;11743;51.228;22.498;2024-01-10T01:07:58;-11.80;99.90
23149;DHT22;11743;51.228;22.498;2024-01-10T01:08:20;-11.80;1.00
23149;DHT22;11743;51.228;22.498;2024-01-10T01:08:41;-11.80;1.00
23149;DHT22;11743;51.228;22.498;2024-01-10T01:09:03;-11.70;99.90
23149;DHT22;11743;51.228;22.498;2024-01-10T01:09:25;-11.70;99.90
23149;DHT22;11743;51.228;22.498;2024-01-10T01:09:47;-11.70;1.00
23149;DHT22;11743;51.228;22.498;2024-01-10T01:10:09;-11.70;1.00
23149;DHT22;11743;51.228;22.498;2024-01-10T01:10:30;-11.70;1.00
23149;DHT22;11743;51.228;22.498;2024-01-10T01:10:55;-11.70;99.90
23149;DHT22;11743;51.228;22.498;2024-01-10T01:11:17;-11.70;99.90
23149;DHT22;11743;51.228;22.498;2024-01-10T01:11:38;-11.70;99.90
23149;DHT22;11743;51.228;22.498;2024-01-10T01:12:00;-11.70;99.90
23149;DHT22;11743;51.228;22.498;2024-01-10T01:12:22;-11.70;1.00
23149;DHT22;11743;51.228;22.498;2024-01-10T01:12:44;-11.70;1.00
23149;DHT22;11743;51.228;22.498;2024-01-10T01:13:06;-11.70;1.00
23149;DHT22;11743;51.228;22.498;2024-01-10T01:13:28;-11.70;1.00
23149;DHT22;11743;51.228;22.498;2024-01-10T01:13:49;-11.70;1.00
23149;DHT22;11743;51.228;22.498;2024-01-10T01:14:11;-11.70;99.90
23149;DHT22;11743;51.228;22.498;2024-01-10T01:14:33;-11.70;99.90
23149;DHT22;11743;51.228;22.498;2024-01-10T01:14:55;-11.70;99.90
23149;DHT22;11743;51.228;22.498;2024-01-10T01:15:17;-11.70;99.90
23149;DHT22;11743;51.228;22.498;2024-01-10T01:15:39;-11.70;99.90
23149;DHT22;11743;51.228;22.498;2024-01-10T01:16:01;-11.70;99.90
23149;DHT22;11743;51.228;22.498;2024-01-10T01:16:23;-11.70;99.90
23149;DHT22;11743;51.228;22.498;2024-01-10T01:16:45;-11.70;99.90
23149;DHT22;11743;51.228;22.498;2024-01-10T01:17:06;-11.70;99.90
23149;DHT22;11743;51.228;22.498;2024-01-10T01:17:29;-11.70;99.90
23149;DHT22;11743;51.228;22.498;2024-01-10T01:17:51;-11.70;99.90
23149;DHT22;11743;51.228;22.498;2024-01-10T01:18:12;-11.70;54.60
23149;DHT22;11743;51.228;22.498;2024-01-10T01:18:35;-11.70;7.00
23149;DHT22;11743;51.228;22.498;2024-01-10T01:18:57;-11.70;99.90
23149;DHT22;11743;51.228;22.498;2024-01-10T01:19:18;-11.70;1.00
23149;DHT22;11743;51.228;22.498;2024-01-10T01:19:40;-11.60;1.00
23149;DHT22;11743;51.228;22.498;2024-01-10T01:20:02;-11.70;93.50
23149;DHT22;11743;51.228;22.498;2024-01-10T01:20:26;-11.70;1.00
23149;DHT22;11743;51.228;22.498;2024-01-10T01:20:51;-11.70;1.00
23149;DHT22;11743;51.228;22.498;2024-01-10T01:21:13;-11.70;1.00
23149;DHT22;11743;51.228;22.498;2024-01-10T01:21:35;-11.80;99.90
23149;DHT22;11743;51.228;22.498;2024-01-10T01:21:57;-11.70;99.90
23149;DHT22;11743;51.228;22.498;2024-01-10T01:22:19;-11.70;99.90
23149;DHT22;11743;51.228;22.498;2024-01-10T01:22:40;-11.70;1.00
23149;DHT22;11743;51.228;22.498;2024-01-10T01:23:02;-11.70;99.90
23149;DHT22;11743;51.228;22.498;2024-01-10T01:23:24;-11.70;99.90
23149;DHT22;11743;51.228;22.498;2024-01-10T01:23:59;-11.70;99.90
23149;DHT22;11743;51.228;22.498;2024-01-10T01:24:21;-11.70;99.90
23149;DHT22;11743;51.228;22.498;2024-01-10T01:24:43;-11.70;99.90
23149;DHT22;11743;51.228;22.498;2024-01-10T01:25:05;-11.70;99.90
23149;DHT22;11743;51.228;22.498;2024-01-10T01:25:27;-11.70;99.90
23149;DHT22;11743;51.228;22.498;2024-01-10T01:25:52;-11.70;1.00
23149;DHT22;11743;51.228;22.498;2024-01-10T01:26:13;-11.70;1.00
23149;DHT22;11743;51.228;22.498;2024-01-10T01:26:36;-11.70;28.80
23149;DHT22;11743;51.228;22.498;2024-01-10T01:26:58;-11.70;1.00
23149;DHT22;11743;51.228;22.498;2024-01-10T01:27:19;-11.70;99.90
23149;DHT22;11743;51.228;22.498;2024-01-10T01:27:41;-11.70;13.70
23149;DHT22;11743;51.228;22.498;2024-01-10T01:28:03;-11.70;99.90
23149;DHT22;11743;51.228;22.498;2024-01-10T01:28:25;-11.70;1.00
23149;DHT22;11743;51.228;22.498;2024-01-10T01:28:47;-11.70;99.90
23149;DHT22;11743;51.228;22.498;2024-01-10T01:29:08;-11.70;99.90
23149;DHT22;11743;51.228;22.498;2024-01-10T01:29:30;-11.70;99.90
23149;DHT22;11743;51.228;22.498;2024-01-10T01:29:52;-11.60;83.80
23149;DHT22;11743;51.228;22.498;2024-01-10T01:30:14;-11.60;1.00
23149;DHT22;11743;51.228;22.498;2024-01-10T01:30:38;-11.60;99.90
23149;DHT22;11743;51.228;22.498;2024-01-10T01:31:01;-11.60;51.40
23149;DHT22;11743;51.228;22.498;2024-01-10T01:31:22;-11.60;1.00
23149;DHT22;11743;51.228;22.498;2024-01-10T01:31:44;-11.60;99.90
23149;DHT22;11743;51.228;22.498;2024-01-10T01:32:06;-11.60;99.90
23149;DHT22;11743;51.228;22.498;2024-01-10T01:32:28;-11.60;99.90
23149;DHT22;11743;51.228;22.498;2024-01-10T01:32:50;-11.60;99.90
23149;DHT22;11743;51.228;22.498;2024-01-10T01:33:12;-11.50;99.90
23149;DHT22;11743;51.228;22.498;2024-01-10T01:33:34;-11.60;99.90
23149;DHT22;11743;51.228;22.498;2024-01-10T01:33:55;-11.60;1.00
23149;DHT22;11743;51.228;22.498;2024-01-10T01:34:17;-11.50;99.90
23149;DHT22;11743;51.228;22.498;2024-01-10T01:34:39;-11.60;99.90
23149;DHT22;11743;51.228;22.498;2024-01-10T01:35:01;-11.60;31.40
23149;DHT22;11743;51.228;22.498;2024-01-10T01:35:24;-11.60;1.00
23149;DHT22;11743;51.228;22.498;2024-01-10T01:35:46;-11.60;22.40
23149;DHT22;11743;51.228;22.498;2024-01-10T01:36:08;-11.60;1.00
23149;DHT22;11743;51.228;22.498;2024-01-10T01:36:29;-11.60;1.00
23149;DHT22;11743;51.228;22.498;2024-01-10T01:36:51;-11.60;1.00
23149;DHT22;11743;51.228;22.498;2024-01-10T01:37:13;-11.60;99.90
23149;DHT22;11743;51.228;22.498;2024-01-10T01:37:35;-11.60;99.90
23149;DHT22;11743;51.228;22.498;2024-01-10T01:37:56;-11.60;99.90
23149;DHT22;11743;51.228;22.498;2024-01-10T01:38:19;-11.60;99.90
23149;DHT22;11743;51.228;22.498;2024-01-10T01:38:41;-11.60;99.90
23149;DHT22;11743;51.228;22.498;2024-01-10T01:39:02;-11.60;1.00
23149;DHT22;11743;51.228;22.498;2024-01-10T01:39:24;-11.60;99.90
23149;DHT22;11743;51.228;22.498;2024-01-10T01:39:46;-11.60;99.90
23149;DHT22;11743;51.228;22.498;2024-01-10T01:40:08;-11.60;99.90
23149;DHT22;11743;51.228;22.498;2024-01-10T01:40:30;-11.60;99.90
23149;DHT22;11743;51.228;22.498;2024-01-10T01:40:52;-11.60;99.90
23149;DHT22;11743;51.228;22.498;2024-01-10T01:41:14;-11.60;99.90
23149;DHT22;11743;51.228;22.498;2024-01-10T01:41:37;-11.50;99.90
23149;DHT22;11743;51.228;22.498;2024-01-10T01:41:58;-11.60;99.90
23149;DHT22;11743;51.228;22.498;2024-01-10T01:42:20;-11.60;99.90
23149;DHT22;11743;51.228;22.498;2024-01-10T01:42:44;-11.60;99.90
23149;DHT22;11743;51.228;22.498;2024-01-10T01:43:20;-11.60;99.90
23149;DHT22;11743;51.228;22.498;2024-01-10T01:43:43;-11.60;99.90
23149;DHT22;11743;51.228;22.498;2024-01-10T01:44:05;-11.60;99.90
23149;DHT22;11743;51.228;22.498;2024-01-10T01:44:26;-11.60;99.90
23149;DHT22;11743;51.228;22.498;2024-01-10T01:44:48;-11.60;99.90
23149;DHT22;11743;51.228;22.498;2024-01-10T01:45:10;-11.60;99.90
23149;DHT22;11743;51.228;22.498;2024-01-10T01:45:32;-11.60;99.90
23149;DHT22;11743;51.228;22.498;2024-01-10T01:45:55;-11.60;1.00
23149;DHT22;11743;51.228;22.498;2024-01-10T01:46:17;-11.60;99.90
23149;DHT22;11743;51.228;22.498;2024-01-10T01:46:39;-11.60;99.90
23149;DHT22;11743;51.228;22.498;2024-01-10T01:47:04;-11.60;99.90
23149;DHT22;11743;51.228;22.498;2024-01-10T01:47:27;-11.60;1.00
23149;DHT22;11743;51.228;22.498;2024-01-10T01:47:49;-11.50;1.00
23149;DHT22;11743;51.228;22.498;2024-01-10T01:48:11;-11.50;1.00
23149;DHT22;11743;51.228;22.498;2024-01-10T01:48:34;-11.50;99.90
23149;DHT22;11743;51.228;22.498;2024-01-10T01:48:56;-11.50;1.00
23149;DHT22;11743;51.228;22.498;2024-01-10T01:49:18;-11.60;1.00
23149;DHT22;11743;51.228;22.498;2024-01-10T01:49:41;-11.60;99.90
23149;DHT22;11743;51.228;22.498;2024-01-10T01:50:08;-11.50;99.90
23149;DHT22;11743;51.228;22.498;2024-01-10T01:50:30;-11.50;99.90
23149;DHT22;11743;51.228;22.498;2024-01-10T01:50:56;-11.50;1.00
23149;DHT22;11743;51.228;22.498;2024-01-10T01:51:20;-11.50;99.90
23149;DHT22;11743;51.228;22.498;2024-01-10T01:51:43;-11.50;1.00
23149;DHT22;11743;51.228;22.498;2024-01-10T01:52:05;-11.50;1.00
23149;DHT22;11743;51.228;22.498;2024-01-10T01:52:30;-11.50;1.00
23149;DHT22;11743;51.228;22.498;2024-01-10T01:52:52;-11.50;1.00
23149;DHT22;11743;51.228;22.498;2024-01-10T01:53:14;-11.50;99.90
23149;DHT22;11743;51.228;22.498;2024-01-10T01:53:37;-11.40;1.00
23149;DHT22;11743;51.228;22.498;2024-01-10T01:53:59;-11.50;1.00
23149;DHT22;11743;51.228;22.498;2024-01-10T01:54:21;-11.40;1.00
23149;DHT22;11743;51.228;22.498;2024-01-10T01:54:43;-11.50;1.00
23149;DHT22;11743;51.228;22.498;2024-01-10T01:55:06;-11.50;1.00
23149;DHT22;11743;51.228;22.498;2024-01-10T01:55:29;-11.50;99.90
23149;DHT22;11743;51.228;22.498;2024-01-10T01:55:51;-11.40;1.00
23149;DHT22;11743;51.228;22.498;2024-01-10T01:56:14;-11.40;1.00
23149;DHT22;11743;51.228;22.498;2024-01-10T01:56:37;-11.40;99.90
23149;DHT22;11743;51.228;22.498;2024-01-10T01:57:00;-11.50;1.00
23149;DHT22;11743;51.228;22.498;2024-01-10T01:57:22;-11.50;1.00
23149;DHT22;11743;51.228;22.498;2024-01-10T01:57:44;-11.40;99.90
23149;DHT22;11743;51.228;22.498;2024-01-10T01:58:06;-11.40;99.90
23149;DHT22;11743;51.228;22.498;2024-01-10T01:58:29;-11.40;1.00
23149;DHT22;11743;51.228;22.498;2024-01-10T01:58:52;-11.40;99.90
23149;DHT22;11743;51.228;22.498;2024-01-10T01:59:15;-11.40;99.90
23149;DHT22;11743;51.228;22.498;2024-01-10T01:59:37;-11.40;99.90
23149;DHT22;11743;51.228;22.498;2024-01-10T01:59:59;-11.40;1.00
23149;DHT22;11743;51.228;22.498;2024-01-10T02:00:21;-11.40;99.90
23149;DHT22;11743;51.228;22.498;2024-01-10T02:00:43;-11.40;99.90
23149;DHT22;11743;51.228;22.498;2024-01-10T02:01:05;-11.40;1.00
23149;DHT22;11743;51.228;22.498;2024-01-10T02:01:27;-11.40;1.00
23149;DHT22;11743;51.228;22.498;2024-01-10T02:01:52;-11.30;99.90
23149;DHT22;11743;51.228;22.498;2024-01-10T02:02:16;-11.40;99.90
23149;DHT22;11743;51.228;22.498;2024-01-10T02:02:39;-11.40;99.90
23149;DHT22;11743;51.228;22.498;2024-01-10T02:03:01;-11.30;1.00
23149;DHT22;11743;51.228;22.498;2024-01-10T02:03:24;-11.30;1.00
23149;DHT22;11743;51.228;22.498;2024-01-10T02:03:46;-11.30;1.00
23149;DHT22;11743;51.228;22.498;2024-01-10T02:04:08;-11.30;1.00
23149;DHT22;11743;51.228;22.498;2024-01-10T02:04:30;-11.30;1.00
23149;DHT22;11743;51.228;22.498;2024-01-10T02:04:52;-11.30;99.90
23149;DHT22;11743;51.228;22.498;2024-01-10T02:05:15;-11.30;1.00
23149;DHT22;11743;51.228;22.498;2024-01-10T02:05:37;-11.30;1.00
23149;DHT22;11743;51.228;22.498;2024-01-10T02:06:00;-11.30;1.00
23149;DHT22;11743;51.228;22.498;2024-01-10T02:06:25;-11.30;1.00
23149;DHT22;11743;51.228;22.498;2024-01-10T02:06:47;-11.30;1.00
23149;DHT22;11743;51.228;22.498;2024-01-10T02:07:09;-11.20;1.00
23149;DHT22;11743;51.228;22.498;2024-01-10T02:07:31;-11.20;99.90
23149;DHT22;11743;51.228;22.498;2024-01-10T02:07:53;-11.30;99.90
23149;DHT22;11743;51.228;22.498;2024-01-10T02:08:15;-11.20;99.90
23149;DHT22;11743;51.228;22.498;2024-01-10T02:08:37;-11.20;1.00
23149;DHT22;11743;51.228;22.498;2024-01-10T02:08:59;-11.10;99.90
23149;DHT22;11743;51.228;22.498;2024-01-10T02:09:21;-11.20;99.90
23149;DHT22;11743;51.228;22.498;2024-01-10T02:09:43;-11.20;99.90
23149;DHT22;11743;51.228;22.498;2024-01-10T02:10:06;-11.20;99.90
23149;DHT22;11743;51.228;22.498;2024-01-10T02:10:28;-11.20;99.90
23149;DHT22;11743;51.228;22.498;2024-01-10T02:10:50;-11.20;1.00
23149;DHT22;11743;51.228;22.498;2024-01-10T02:11:12;-11.20;1.00
23149;DHT22;11743;51.228;22.498;2024-01-10T02:11:34;-11.20;99.90
23149;DHT22;11743;51.228;22.498;2024-01-10T02:11:56;-11.20;1.00
23149;DHT22;11743;51.228;22.498;2024-01-10T02:12:17;-11.20;1.00
23149;DHT22;11743;51.228;22.498;2024-01-10T02:12:39;-11.20;1.00
23149;DHT22;11743;51.228;22.498;2024-01-10T02:13:01;-11.10;1.00
23149;DHT22;11743;51.228;22.498;2024-01-10T02:13:23;-11.10;1.00
23149;DHT22;11743;51.228;22.498;2024-01-10T02:13:46;-11.10;1.00
23149;DHT22;11743;51.228;22.498;2024-01-10T02:14:08;-11.10;99.90
23149;DHT22;11743;51.228;22.498;2024-01-10T02:14:30;-10.00;1.00
23149;DHT22;11743;51.228;22.498;2024-01-10T02:14:52;-11.10;1.00
23149;DHT22;11743;51.228;22.498;2024-01-10T02:15:14;-11.10;1.00
23149;DHT22;11743;51.228;22.498;2024-01-10T02:15:37;-11.00;99.90
23149;DHT22;11743;51.228;22.498;2024-01-10T02:16:00;-11.10;1.00
23149;DHT22;11743;51.228;22.498;2024-01-10T02:16:22;-11.10;1.00
23149;DHT22;11743;51.228;22.498;2024-01-10T02:16:44;-11.10;1.00
23149;DHT22;11743;51.228;22.498;2024-01-10T02:17:06;-11.10;1.00